Amberson, Pennsylvania
Current Conditions -  °F | °C
As of 4:38 AM on Saturday 29 Nov 2014 (Local Time) from KHGR Reporting Station
Light Snow Light Snow  
Wind Chill: 28°   Ceiling: 2800
Heat Index: 28°   Visibility: 2mi
Dew Point: 23°   Wind: 3mph
Humidity: 81%   Direction: 160°SSE
Pressure: 30.28"   Gusts: NA
Location:  40.17°N, 77.68°W
Report Text: KHGR 290938Z AUTO 16003KT 2SM -SN OVC028 M02/M05 A3028 RMK AO2 P0000 T10221050
Loading
Personal Weather Stations






























Interactive Weather Map New forecast layout! Learn more

10-Day Weather Forecast

Advertisements
Track Severe Weather on mobile